AWST,Max TemperatureF,Mean TemperatureF,Min TemperatureF,Max Dew PointF,MeanDew PointF,Min DewpointF,Max Humidity, Mean Humidity, Min Humidity, Max Sea Level PressureIn, Mean Sea Level PressureIn, Min Sea Level PressureIn, Max VisibilityMiles, Mean VisibilityMiles, Min VisibilityMiles, Max Wind SpeedMPH, Mean Wind SpeedMPH, Max Gust SpeedMPH,PrecipitationIn, CloudCover, Events, WindDirDegrees
2012-12-1,82,67,52,52,45,37,94,47,12,30.18,30.08,29.99,,,,22,8,,0.00,,,149
2012-12-2,85,68,50,54,47,39,100,53,11,30.21,30.14,30.04,,,,23,9,32,0.00,,,151
2012-12-3,84,68,51,52,46,41,94,49,14,30.19,30.14,30.08,,,,21,11,36,0.00,,,159
2012-12-4,82,68,54,61,49,41,100,53,16,30.21,30.15,30.09,,,,20,12,29,0.00,,,134
2012-12-5,90,70,50,51,39,23,94,37,4,30.12,30.02,29.91,,,,23,13,,0.00,,,83
2012-12-6,99,83,67,52,42,28,38,20,4,29.92,29.81,29.74,,,,25,13,36,0.00,,,290
2012-12-7,103,85,67,63,51,41,65,29,9,29.92,29.80,29.71,,,,30,12,40,0.00,,,306
2012-12-8,85,71,57,60,50,42,83,51,19,30.30,30.14,29.93,,,,26,20,38,0.00,,,171
2012-12-9,81,66,52,52,45,41,77,47,16,30.30,30.22,30.14,,,,23,13,29,0.00,,,127
2012-12-10,90,71,52,58,49,28,100,53,5,30.21,30.11,30.01,,,,25,13,36,0.00,,,112
2012-12-11,97,80,63,54,45,38,72,33,7,30.06,29.94,29.79,,,,23,13,33,0.00,,,94
2012-12-12,106,88,71,74,54,35,100,47,7,29.89,29.81,29.71,,,,26,14,43,0.43,,,47
2012-12-13,75,72,69,75,72,69,100,99,94,29.95,29.90,29.83,,,,15,7,,0.24,,,10
2012-12-14,88,74,61,74,66,62,100,76,35,29.92,29.85,29.77,,,,20,9,31,0.04,,,120
2012-12-15,81,70,59,66,58,50,100,69,26,29.98,29.93,29.86,,,,20,13,30,0.00,,,194
2012-12-16,86,70,55,63,55,48,100,60,18,30.01,29.94,29.86,,,,25,7,38,0.00,,,113
2012-12-17,99,79,59,59,49,41,94,38,8,29.92,29.81,29.70,,,,18,12,24,0.00,,,35
2012-12-18,105,86,66,66,50,37,100,34,5,29.83,29.68,29.59,,,,29,16,41,0.00,,,174
2012-12-19,88,74,60,68,56,45,100,62,20,30.01,29.86,29.74,,,,22,15,30,0.00,,,168
2012-12-20,85,70,54,56,48,38,100,50,11,30.06,29.99,29.91,,,,25,9,,0.00,,,133
2012-12-21,95,74,54,55,44,27,94,40,4,30.01,29.92,29.80,,,,23,10,,0.00,,,88
2012-12-22,110,84,58,57,43,28,82,29,4,29.83,29.70,29.56,,,,30,14,41,0.00,,,318
2012-12-23,95,79,62,65,54,44,100,51,11,29.98,29.81,29.71,,,,23,17,29,0.00,,,177
2012-12-24,87,72,58,60,54,48,98,56,19,30.15,30.05,29.95,,,,21,13,,0.00,,,134
2012-12-25,88,72,55,54,48,36,94,48,9,30.18,30.08,29.98,,,,24,14,30,0.00,,,118
2012-12-26,97,76,54,61,45,23,100,46,4,30.04,29.96,29.85,,,,21,11,,0.00,,,133
2012-12-27,89,74,58,64,54,45,100,56,18,30.12,30.04,29.95,,,,21,12,29,0.00,,,130
2012-12-28,91,74,56,59,53,46,100,57,13,30.15,30.10,30.03,,,,24,13,34,0.00,,,117
2012-12-29,94,76,57,61,56,43,100,61,10,30.18,30.09,30.01,,,,24,13,,0.00,,,111
2012-12-30,104,82,59,65,47,19,100,42,4,30.06,29.98,29.88,,,,23,12,34,0.00,,,108
2012-12-31,109,88,66,48,30,14,52,16,4,29.95,29.89,29.82,,,,17,10,22,0.00,,,81